Stations météo

Publicité
Mont Aigoual, France (7560): Température de l'air & dewpoint: 13.03.2019 06:00:00 - 19.03.2019 06:00:00 (CET)Mont Aigoual, France (7560): Vitesse du vent & gusts: 13.03.2019 06:00:00 - 19.03.2019 06:00:00 (CET)Mont Aigoual, France (7560): Direction du vent: 13.03.2019 06:00:00 - 19.03.2019 06:00:00 (CET)Mont Aigoual, France (7560): visibility: 13.03.2019 06:00:00 - 19.03.2019 06:00:00 (CET)Mont Aigoual, France (7560): Quantités de précipitations: 13.03.2019 06:00:00 - 19.03.2019 06:00:00 (CET)
Date & Time tt [°C] td [°C] ff [km/h] ff [knt] fx [km/h] fx [knt] dd vv [km] rr [mm]
19.03.2019 06:00:00 -4,1 -4,2 60 33 82 44 N 0,2 0,0
19.03.2019 05:00:00 -4,1 -4,2 61 33 89 48 NNW 0,2 0,0
19.03.2019 04:00:00 -4,0 -4,1 56 30 79 43 NNW 0,2 0,0
19.03.2019 03:00:00 -4,1 -4,4 53 29 70 38 NNW 0,8 0,0
19.03.2019 02:00:00 -3,9 -4,2 47 25 69 37 N 1,8 0,0
19.03.2019 01:00:00 -3,7 -4,1 44 24 76 41 N 4,5 0,0
19.03.2019 00:00:00 -3,5 -4,2 44 24 61 33 N 20 0,0
18.03.2019 23:00:00 -3,1 -4,1 42 23 61 33 N 20 0,0
18.03.2019 22:00:00 -2,8 -3,8 44 24 71 38 N 20 0,0
18.03.2019 21:00:00 -2,8 -3,9 45 25 83 45 NNW 20 0,0
18.03.2019 20:00:00 -2,6 -3,4 44 24 71 38 NNW 20 0,0
18.03.2019 19:00:00 -1,7 -5,9 44 24 70 38 N 20 0,0
18.03.2019 18:00:00 -1,5 -3,9 48 26 82 44 NNW 20 0,0
18.03.2019 17:00:00 -0,6 -4,5 48 26 86 47 N 20 0,0
18.03.2019 16:00:00 -0,8 -4,7 48 26 94 51 N 20 0,0
18.03.2019 15:00:00 -1,4 -3,8 56 30 98 53 N 20 0,0
18.03.2019 14:00:00 -1,9 -2,7 46 25 81 44 NNW 20 0,0
18.03.2019 13:00:00 -2,8 -3,2 48 26 82 44 N 20 0,0
18.03.2019 12:00:00 -3,4 -3,7 53 29 98 53 N 20 0,0
18.03.2019 11:00:00 -4,2 -4,5 77 41 109 59 NNW 20 0,0
18.03.2019 10:00:00 -5,2 -5,6 69 37 98 53 N 3,6 0,0
18.03.2019 09:00:00 -5,6 -6,0 64 34 98 53 N 5 0,0
18.03.2019 08:00:00 -5,3 -5,7 54 29 96 52 N 0,4 0,0
18.03.2019 07:00:00 -5,1 -5,5 58 32 98 53 NNW 0,5 0,0
18.03.2019 06:00:00 -5,0 -5,4 55 30 92 50 NNW 0,4 0,0
18.03.2019 05:00:00 -4,8 -5,1 52 28 98 53 NNW 0,3 0,0
18.03.2019 04:00:00 -4,5 -4,8 50 27 109 59 NNW 0,2 0,0
18.03.2019 03:00:00 -4,6 -4,9 67 36 106 57 NNW 0,3 0,0
18.03.2019 02:00:00 -4,0 -4,3 55 30 109 59 NNW 0,2 0,0
18.03.2019 01:00:00 -4,0 -4,3 78 42 122 66 NNW 0,2 0,0
18.03.2019 00:00:00 -3,8 -3,9 58 31 112 61 NNW 0,2 0,0
17.03.2019 23:00:00 -3,8 -3,9 68 37 114 62 NNW 1,0 0,0
17.03.2019 22:00:00 -3,3 -3,4 61 33 113 61 NNW 0,2 0,0
17.03.2019 21:00:00 -3,0 -3,1 61 33 117 63 NNW 0,2 0,0
17.03.2019 20:00:00 -2,1 -2,1 47 26 120 65 N 0,2 0,0
17.03.2019 19:00:00 -2,0 -2,4 77 42 119 64 NNW 14 0,0
17.03.2019 18:00:00 -1,5 -1,8 74 40 104 56 NW 20 0,0
17.03.2019 17:00:00 -0,4 -0,4 53 29 103 55 NNW 0,1 0,0
17.03.2019 16:00:00 1,8 1,8 64 34 102 55 NW 0,1 0,0
17.03.2019 15:00:00 2,1 2,1 68 37 103 55 WNW 0,1 0,0
17.03.2019 14:00:00 2,5 1,9 65 35 95 51 NW 1,6 0,0
17.03.2019 13:00:00 2,1 2,0 67 36 93 50 WNW 3,5 0,0
17.03.2019 12:00:00 1,3 1,3 66 36 94 51 WNW 0,1 0,0
17.03.2019 11:00:00 0,8 0,8 57 31 78 42 WNW 0,1 0,0
17.03.2019 10:00:00 1,0 0,4 47 25 65 35 WNW 0,2 0,0
17.03.2019 09:00:00 4,0 -1,2 42 23 65 35 WNW 20 0,0
17.03.2019 08:00:00 5,1 -3,0 29 16 57 31 WSW 20 0,0
17.03.2019 07:00:00 8,5 -7,3 33 18 47 25 SW 20 0,0
17.03.2019 06:00:00 8,5 -10,4 31 17 44 24 SSW 20 0,0
17.03.2019 05:00:00 9,4 -12,5 29 16 37 20 SSW 20 0,0
17.03.2019 04:00:00 9,4 -10,2 31 17 39 21 SSW 20 0,0
17.03.2019 03:00:00 9,4 -11,3 28 15 41 22 SSW 20 0,0
17.03.2019 02:00:00 10,3 -10,0 28 15 48 26 W 20 0,0
17.03.2019 01:00:00 10,3 -13,7 30 16 45 24 W 20 0,0
17.03.2019 00:00:00 10,9 -19,6 35 19 52 28 W 20 0,0
16.03.2019 23:00:00 10,8 -27,5 35 19 52 28 WSW 20 0,0
16.03.2019 22:00:00 11,4 -29,5 36 19 48 26 SW 20 0,0
16.03.2019 21:00:00 10,5 -22,5 16 9 28 15 SSW 20 0,0
16.03.2019 20:00:00 11,0 -27,3 18 10 25 13 WNW 20 0,0
16.03.2019 19:00:00 11,1 -18,3 20 11 24 13 WNW 20 0,0
16.03.2019 18:00:00 11,4 -9,0 18 10 29 15 NW 20 0,0
16.03.2019 17:00:00 12,6 -9,2 21 12 36 19 NW 20 0,0
16.03.2019 16:00:00 12,7 -7,9 19 10 32 17 NW 20 0,0
16.03.2019 15:00:00 12,2 -6,8 17 9 45 25 WNW 20 0,0
16.03.2019 14:00:00 11,7 -7,2 29 16 45 24 NW 20 0,0
16.03.2019 13:00:00 10,8 -7,0 30 16 48 26 NW 20 0,0
16.03.2019 12:00:00 9,3 -7,4 34 18 61 33 NW 20 0,0
16.03.2019 11:00:00 8,5 -9,5 41 22 59 32 NW 20 0,0
16.03.2019 10:00:00 7,3 -7,6 44 24 62 33 NW 20 0,0
16.03.2019 09:00:00 5,7 -6,2 44 24 74 40 NW 20 0,0
16.03.2019 08:00:00 4,8 -5,9 54 29 86 46 NNW 20 0,0
16.03.2019 07:00:00 3,6 -5,4 64 35 90 48 NNW 20 0,0
16.03.2019 06:00:00 2,5 -3,0 73 39 95 52 NNW 20 0,0
16.03.2019 05:00:00 0,0 -0,3 74 40 96 52 NNW 0,8 0,0
16.03.2019 04:00:00 0,2 0,2 73 40 96 52 NNW 0,3 0,0
16.03.2019 03:00:00 0,1 0,1 74 40 95 52 NNW 0,2 0,0
16.03.2019 02:00:00 0,5 0,5 74 40 102 55 NW 0,1 0,0
16.03.2019 01:00:00 0,5 0,5 74 40 102 55 NNW 0,2 0,0
16.03.2019 00:00:00 1,0 1,0 74 40 101 55 NW 0,1 0,0
15.03.2019 23:00:00 1,1 1,1 67 36 99 54 NNW 0,1 0,0
15.03.2019 22:00:00 1,0 1,0 71 38 108 59 NNW 0,1 0,0
15.03.2019 21:00:00 1,6 1,6 73 40 111 60 NNW 0,1 0,0
15.03.2019 20:00:00 2,0 2,0 74 40 106 57 NNW 0,1 0,2
15.03.2019 19:00:00 2,1 2,1 72 39 109 59 NNW 0,2 0,2
15.03.2019 18:00:00 2,6 2,6 64 34 99 54 NNW 0,1 0,4
15.03.2019 17:00:00 3,0 3,0 55 30 99 54 NNW 0,1 0,6
15.03.2019 16:00:00 3,1 3,1 60 33 106 57 NNW 0,1 0,2
15.03.2019 15:00:00 3,4 3,4 62 34 109 59 NNW 0,2 0,2
15.03.2019 14:00:00 3,0 3,0 66 36 115 62 NNW 0,2 0,2
15.03.2019 13:00:00 2,8 2,8 63 34 131 71 NNW 0,2 0,0
15.03.2019 12:00:00 2,5 2,5 92 50 145 78 NNW 0,3 0,0
15.03.2019 11:00:00 1,7 1,7 71 38 135 73 NNW 0,3 0,2
15.03.2019 10:00:00 1,4 1,4 80 43 125 68 NNW 0,4 0,2
15.03.2019 09:00:00 1,3 1,3 81 44 116 63 NW 0,6 0,2
15.03.2019 08:00:00 1,0 1,0 67 36 107 58 NW 0,4 0,4
15.03.2019 07:00:00 0,9 0,9 67 36 114 61 NNW 0,2 0,4
15.03.2019 06:00:00 0,8 0,8 73 40 113 61 NNW 0,2 0,4
15.03.2019 05:00:00 0,7 0,7 79 43 123 66 NW 0,1 0,2
15.03.2019 04:00:00 0,5 0,5 85 46 132 71 NW 0,1 0,2
15.03.2019 03:00:00 0,2 0,2 86 47 131 71 NW 0,1 0,2
15.03.2019 02:00:00 0,1 0,1 82 44 127 68 NW 0,1 0,4
15.03.2019 01:00:00 0,1 0,1 86 46 151 81 NW 0,1 0,2
15.03.2019 00:00:00 0,0 0,0 81 44 135 73 NW 0,1 0,4
14.03.2019 23:00:00 -0,1 -0,1 74 40 126 68 NW 0,1 0,0
14.03.2019 22:00:00 -0,1 -0,1 93 50 151 82 NW 0,1 0,2
14.03.2019 21:00:00 -0,1 -0,1 105 57 164 89 NW 0,1 0,0
14.03.2019 20:00:00 -0,1 -0,1 101 55 157 85 NW 0,1 0,2
14.03.2019 19:00:00 -0,1 -0,1 104 56 157 85 WNW 0,1 0,0
14.03.2019 18:00:00 -0,3 -0,3 116 63 162 88 NW 0,1 0,2
14.03.2019 17:00:00 -0,3 -0,3 93 50 139 75 NW 0,1 0,0
14.03.2019 16:00:00 -0,6 -0,6 95 51 153 83 NW 0,1 0,2
14.03.2019 15:00:00 -0,6 -0,6 91 49 148 80 NW 0,1 0,2
14.03.2019 14:00:00 -1,0 -1,0 92 50 144 78 NW 0,1 0,2
14.03.2019 13:00:00 -1,3 -1,3 93 50 134 73 NW 0,1 0,4
14.03.2019 12:00:00 -1,6 -1,6 69 37 128 69 NNW 0,1 0,2
14.03.2019 11:00:00 -2,0 -2,0 73 40 111 60 NW 0,1 0,2
14.03.2019 10:00:00 -2,7 -2,8 77 42 114 62 NNW 0,1 0,2
14.03.2019 09:00:00 -2,6 -2,7 64 35 124 67 NNW 0,2 0,2
14.03.2019 08:00:00 -3,0 -3,1 79 42 125 67 NNW 0,1 0,2
14.03.2019 07:00:00 -3,1 -3,2 80 43 122 66 NNW 0,1 0,0
14.03.2019 06:00:00 -2,9 -3,0 64 35 103 56 NNW 0,1 0,4
14.03.2019 05:00:00 -2,9 -3,0 63 34 117 63 NNW 0,2 0,2
14.03.2019 04:00:00 -3,2 -3,3 74 40 113 61 NNW 0,1 0,0
14.03.2019 03:00:00 -3,2 -3,3 62 34 110 60 NNW 0,1 0,2
14.03.2019 02:00:00 -2,9 -3,0 67 36 109 59 NNW 0,1 0,0
14.03.2019 01:00:00 -2,8 -2,9 59 32 113 61 NNW - 0,0
14.03.2019 00:00:00 -2,7 -2,8 58 31 112 61 NNW 0,1 0,0
13.03.2019 23:00:00 -3,0 -3,1 80 43 111 60 NNW 0,1 0,2
13.03.2019 22:00:00 -2,5 -2,6 56 30 113 61 NW 0,1 0,2
13.03.2019 21:00:00 -2,5 -2,5 56 30 108 58 NNW 0,1 0,0
13.03.2019 20:00:00 -2,7 -2,8 54 29 118 64 NNW 0,1 0,2
13.03.2019 19:00:00 -2,7 -2,8 49 26 113 61 N 0,1 0,0
13.03.2019 18:00:00 -2,3 -2,3 63 34 111 60 NW 0,1 0,0
13.03.2019 17:00:00 -2,2 -2,2 63 34 114 62 NNW 0,7 0,0
13.03.2019 16:00:00 -2,2 -2,2 63 34 104 56 NNW 0,2 0,2
13.03.2019 15:00:00 -2,2 -2,2 71 38 109 59 NNW 0,1 0,6
13.03.2019 14:00:00 -2,3 -2,3 53 29 101 55 NNW 0,2 0,2
13.03.2019 13:00:00 -2,4 -2,4 56 30 108 58 NNW 0,1 0,8
13.03.2019 12:00:00 -2,9 -3,0 37 20 87 47 NNW 0,1 0,2
13.03.2019 11:00:00 -2,9 -3,0 54 29 100 54 NNW 0,2 0,8
13.03.2019 10:00:00 -2,9 -3,0 44 24 90 49 NNW 0,2 0,4
13.03.2019 09:00:00 -3,2 -3,3 45 25 87 47 NW 0,2 0,2
13.03.2019 08:00:00 -3,7 -4,0 46 25 97 52 NNW 0,2 0,0
13.03.2019 07:00:00 -3,9 -4,2 56 30 109 59 NNW 0,2 0,0
13.03.2019 06:00:00 -3,7 -4,0 47 25 91 49 NNW 0,2 0,0

tt = Température de l'air
td = dewpoint
ff = Vitesse du vent
fx = gusts
dd = Direction du vent
vv = visibility
rr = Quantités de précipitations

stations d'obs. à proximité